Woody Point, Canada
Current Conditions -  °F | °C
As of 2:00 AM on Monday 20 Oct 2014 (Local Time) from CYDF Reporting Station
Light Rain Light Rain  
Wind Chill: 54°   Ceiling: 5500
Heat Index: 54°   Visibility: 10mi
Dew Point: 54°   Wind: 6mph
Humidity: 100%   Direction: 30°NNE
Pressure: 29.63"   Gusts: NA
Location:  49.5°N, 57.93°W
Report Text: CYDF 200400Z 03005KT 10SM -RA OVC055 12/12 A2963 RMK SC8 SLP034 DENSITY ALT 100FT
Loading
Personal Weather Stations






























Interactive Weather Map New forecast layout! Learn more

10-Day Weather Forecast

Advertisements
Track Severe Weather on mobile